createdAt,value
2022-09-16T00:04:14.886Z,1.48
2022-09-16T00:09:17.692Z,1.55
2022-09-16T00:14:20.472Z,1.80
2022-09-16T00:19:24.702Z,2.00
2022-09-16T00:24:28.320Z,1.95
2022-09-16T00:29:31.256Z,1.70
2022-09-16T00:34:35.439Z,2.22
2022-09-16T00:39:38.561Z,1.70
2022-09-16T00:44:57.569Z,2.00
2022-09-16T00:50:08.121Z,2.00
2022-09-16T00:55:15.377Z,1.58
2022-09-16T01:00:18.276Z,1.95
2022-09-16T01:05:25.855Z,1.63
2022-09-16T01:10:28.624Z,1.33
2022-09-16T01:15:42.220Z,1.50
2022-09-16T01:21:03.287Z,1.50
2022-09-16T01:26:21.853Z,1.45
2022-09-16T01:31:35.703Z,1.40
2022-09-16T01:36:46.458Z,1.70
2022-09-16T01:42:02.392Z,2.40
2022-09-16T01:47:13.590Z,1.60
2022-09-16T01:52:24.743Z,1.88
2022-09-16T01:57:35.805Z,2.05
2022-09-16T02:02:45.536Z,1.95
2022-09-16T02:07:53.404Z,2.90
2022-09-16T02:13:01.179Z,1.77
2022-09-16T02:18:10.436Z,2.05
2022-09-16T02:23:16.808Z,2.22
2022-09-16T02:28:27.420Z,1.95
2022-09-16T02:33:35.336Z,2.17
2022-09-16T02:38:42.648Z,1.85
2022-09-16T02:43:46.526Z,1.85
2022-09-16T02:48:58.566Z,1.85
2022-09-16T02:54:10.373Z,1.67
2022-09-16T02:59:13.986Z,1.50
2022-09-16T03:04:21.345Z,1.90
2022-09-16T03:09:25.001Z,1.80
2022-09-16T03:14:53.061Z,2.00
2022-09-16T03:20:05.861Z,2.50
2022-09-16T03:25:15.190Z,1.70
2022-09-16T03:30:18.204Z,2.08
2022-09-16T03:35:28.415Z,2.00
2022-09-16T03:40:34.241Z,2.00
2022-09-16T03:45:37.193Z,2.05
2022-09-16T03:50:41.512Z,1.80
2022-09-16T03:55:44.274Z,2.00
2022-09-16T04:00:52.133Z,1.90
2022-09-16T04:05:57.319Z,1.70
2022-09-16T04:11:02.110Z,1.85
2022-09-16T04:16:05.534Z,1.50
2022-09-16T04:21:10.886Z,2.45
2022-09-16T04:26:13.829Z,2.50
2022-09-16T04:31:17.116Z,2.20
2022-09-16T04:36:22.169Z,2.00
2022-09-16T04:41:27.493Z,1.80
2022-09-16T04:46:32.460Z,1.70
2022-09-16T04:51:36.654Z,1.75
2022-09-16T04:56:39.888Z,2.10
2022-09-16T05:01:43.843Z,2.13
2022-09-16T05:06:48.126Z,1.60
2022-09-16T05:11:50.886Z,2.00
2022-09-16T05:16:53.786Z,1.58
2022-09-16T05:22:00.679Z,1.77
2022-09-16T05:27:03.777Z,1.60
2022-09-16T05:32:06.638Z,1.80
2022-09-16T05:37:10.790Z,1.90
2022-09-16T05:42:13.577Z,1.70
2022-09-16T05:47:16.311Z,3.00
2022-09-16T05:52:20.426Z,2.25
2022-09-16T05:57:23.856Z,2.17
2022-09-16T06:02:26.908Z,2.03
2022-09-16T06:07:31.044Z,2.30
2022-09-16T06:12:33.761Z,2.10
2022-09-16T06:17:36.494Z,1.50
2022-09-16T06:22:40.646Z,1.95
2022-09-16T06:27:43.382Z,1.40
2022-09-16T06:32:46.199Z,1.30
2022-09-16T06:37:50.375Z,0.90
2022-09-16T06:42:57.187Z,1.00
2022-09-16T06:48:03.272Z,1.15
2022-09-16T06:53:07.545Z,0.80
2022-09-16T06:58:10.343Z,0.90
2022-09-16T07:03:13.027Z,0.98
2022-09-16T07:08:17.195Z,0.90
2022-09-16T07:13:20.158Z,0.95
2022-09-16T07:18:22.970Z,0.80
2022-09-16T07:23:27.076Z,0.80
2022-09-16T07:28:29.917Z,0.90
2022-09-16T07:33:37.088Z,0.73
2022-09-16T07:38:41.396Z,0.82
2022-09-16T07:43:45.029Z,1.50
2022-09-16T07:48:49.768Z,0.90
2022-09-16T07:53:58.507Z,1.15
2022-09-16T07:59:02.711Z,1.10
2022-09-16T08:04:05.808Z,1.02
2022-09-16T08:09:27.298Z,1.10
2022-09-16T08:14:33.161Z,1.38
2022-09-16T08:19:35.991Z,0.90
2022-09-16T08:24:40.082Z,0.90
2022-09-16T08:29:42.863Z,1.48
2022-09-16T08:34:45.694Z,1.35
2022-09-16T08:39:51.825Z,1.25
2022-09-16T08:45:03.794Z,1.58
2022-09-16T08:50:14.493Z,1.40
2022-09-16T08:55:25.167Z,1.60
2022-09-16T09:00:28.052Z,1.30
2022-09-16T09:05:42.813Z,1.02
2022-09-16T09:10:50.917Z,1.65
2022-09-16T09:16:00.315Z,1.48
2022-09-16T09:21:16.100Z,1.65
2022-09-16T09:26:23.146Z,1.27
2022-09-16T09:31:39.334Z,1.40
2022-09-16T09:36:52.572Z,1.15
2022-09-16T09:42:03.742Z,0.98
2022-09-16T09:47:13.136Z,0.90
2022-09-16T09:52:22.185Z,1.10
2022-09-16T09:57:34.676Z,1.10
2022-09-16T10:02:44.968Z,0.80
2022-09-16T10:07:52.190Z,1.20
2022-09-16T10:12:56.348Z,1.08
2022-09-16T10:18:02.983Z,1.52
2022-09-16T10:23:10.919Z,1.05
2022-09-16T10:28:23.680Z,1.30
2022-09-16T10:33:30.672Z,1.33
2022-09-16T10:38:38.455Z,1.00
2022-09-16T10:43:50.384Z,0.70
2022-09-16T10:48:58.068Z,0.95
2022-09-16T10:54:02.777Z,0.70
2022-09-16T10:59:11.396Z,1.30
2022-09-16T11:05:02.716Z,1.58
2022-09-16T11:10:13.966Z,1.30
2022-09-16T11:15:30.185Z,1.08
2022-09-16T11:21:04.688Z,1.02
2022-09-16T11:26:15.060Z,0.70
2022-09-16T11:31:31.904Z,0.85
2022-09-16T11:36:46.193Z,0.80
2022-09-16T11:41:58.436Z,1.15
2022-09-16T11:47:17.101Z,1.38
2022-09-16T11:52:35.122Z,1.60
2022-09-16T11:57:43.135Z,0.93
2022-09-16T12:02:54.439Z,1.75
2022-09-16T12:08:04.384Z,1.48
2022-09-16T12:13:10.939Z,1.20
2022-09-16T12:18:20.234Z,1.23
2022-09-16T12:23:27.732Z,1.40
2022-09-16T12:28:37.401Z,1.07
2022-09-16T12:33:46.167Z,0.73
2022-09-16T12:38:49.058Z,1.23
2022-09-16T12:44:33.642Z,1.13
2022-09-16T12:50:02.369Z,1.25
2022-09-16T12:55:34.287Z,1.35
2022-09-16T13:00:44.506Z,0.93
2022-09-16T13:05:51.926Z,0.82
2022-09-16T13:16:32.811Z,0.98
2022-09-16T13:21:42.076Z,2.15
2022-09-16T13:26:46.893Z,1.38
2022-09-16T13:31:50.264Z,0.93
2022-09-16T13:36:54.789Z,2.55
2022-09-16T13:41:57.660Z,1.15
2022-09-16T13:47:34.242Z,1.30
2022-09-16T13:52:38.527Z,1.40
2022-09-16T13:57:58.421Z,1.08
2022-09-16T14:03:28.028Z,1.42
2022-09-16T14:08:40.508Z,1.02
2022-09-16T14:13:49.273Z,1.23
2022-09-16T14:18:57.360Z,1.65
2022-09-16T14:24:17.078Z,0.73
2022-09-16T14:29:20.388Z,1.35
2022-09-16T14:34:28.446Z,2.20
2022-09-16T14:39:34.389Z,1.20
2022-09-16T14:44:40.839Z,1.15
2022-09-16T14:49:46.816Z,1.35
2022-09-16T14:54:51.927Z,1.90
2022-09-16T14:59:57.791Z,1.45
2022-09-16T15:05:11.272Z,1.10
2022-09-16T15:10:25.213Z,1.48
2022-09-16T15:15:30.709Z,1.30
2022-09-16T15:20:37.656Z,1.20
2022-09-16T15:25:41.844Z,1.30
2022-09-16T15:30:48.565Z,1.30
2022-09-16T15:35:52.537Z,1.10
2022-09-16T15:41:04.588Z,1.10
2022-09-16T15:46:16.182Z,1.20
2022-09-16T15:51:29.358Z,1.20
2022-09-16T15:56:42.647Z,1.27
2022-09-16T16:01:53.482Z,1.40
2022-09-16T16:06:58.478Z,1.33
2022-09-16T16:12:05.094Z,1.60
2022-09-16T16:17:14.420Z,1.50
2022-09-16T16:22:17.998Z,2.42
2022-09-16T16:27:22.416Z,1.83
2022-09-16T16:32:25.214Z,1.67
2022-09-16T16:37:46.841Z,2.03
2022-09-16T16:42:51.716Z,1.70
2022-09-16T16:47:54.439Z,2.10
2022-09-16T16:52:57.203Z,2.92
2022-09-16T16:58:01.415Z,3.05
2022-09-16T17:03:04.844Z,2.40
2022-09-16T17:08:08.517Z,2.33
2022-09-16T17:13:12.623Z,2.75
2022-09-16T17:18:15.488Z,3.17
2022-09-16T17:23:18.747Z,2.90
2022-09-16T17:28:23.132Z,2.92
2022-09-16T17:33:26.256Z,2.53
2022-09-16T17:38:29.089Z,3.28
2022-09-16T17:43:33.621Z,3.47
2022-09-16T17:48:37.967Z,2.50
2022-09-16T17:53:41.135Z,2.28
2022-09-16T17:58:50.119Z,2.40
2022-09-16T18:03:56.811Z,2.95
2022-09-16T18:09:01.325Z,3.05
2022-09-16T18:14:07.893Z,3.20
2022-09-16T18:19:10.809Z,2.40
2022-09-16T18:24:14.480Z,4.40
2022-09-16T18:29:18.698Z,2.67
2022-09-16T18:34:21.495Z,2.75
2022-09-16T18:39:24.355Z,2.10
2022-09-16T18:44:28.915Z,2.90
2022-09-16T18:49:31.795Z,3.15
2022-09-16T18:54:34.563Z,2.33
2022-09-16T18:59:38.671Z,2.03
2022-09-16T19:04:43.697Z,2.08
2022-09-16T19:09:48.340Z,1.80
2022-09-16T19:14:55.523Z,1.90
2022-09-16T19:19:58.356Z,2.30
2022-09-16T19:25:01.812Z,1.90
2022-09-16T19:30:06.954Z,2.80
2022-09-16T19:35:10.389Z,2.25
2022-09-16T19:40:14.101Z,3.15
2022-09-16T19:45:18.698Z,1.80
2022-09-16T19:50:21.706Z,2.72
2022-09-16T19:55:24.585Z,2.08
2022-09-16T20:00:46.594Z,1.90
2022-09-16T20:06:01.449Z,1.98
2022-09-16T20:11:06.277Z,1.73
2022-09-16T20:16:11.127Z,1.80
2022-09-16T20:21:24.572Z,1.98
2022-09-16T20:26:28.115Z,2.13
2022-09-16T20:31:34.168Z,2.08
2022-09-16T20:36:38.971Z,2.42
2022-09-16T20:41:42.958Z,2.63
2022-09-16T20:46:48.867Z,1.67
2022-09-16T20:51:52.358Z,2.45
2022-09-16T20:56:55.111Z,2.13
2022-09-16T21:02:03.961Z,1.83
2022-09-16T21:07:06.708Z,1.75
2022-09-16T21:12:09.477Z,1.90
2022-09-16T21:17:13.557Z,2.15
2022-09-16T21:22:16.320Z,2.00
2022-09-16T21:27:19.039Z,3.50
2022-09-16T21:32:23.565Z,2.20
2022-09-16T21:37:26.747Z,2.13
2022-09-16T21:42:29.519Z,2.58
2022-09-16T21:47:33.682Z,2.58
2022-09-16T21:52:36.408Z,2.33
2022-09-16T21:57:39.212Z,2.22
2022-09-16T22:02:43.361Z,2.28
2022-09-16T22:07:46.332Z,2.17
2022-09-16T22:12:49.077Z,2.20
2022-09-16T22:17:54.101Z,2.83
2022-09-16T22:22:57.304Z,2.75
2022-09-16T22:28:00.272Z,6.32
2022-09-16T22:33:04.561Z,2.83
2022-09-16T22:38:07.364Z,2.85
2022-09-16T22:43:10.092Z,3.10
2022-09-16T22:48:14.193Z,3.13
2022-09-16T22:53:16.921Z,3.45
2022-09-16T22:58:19.695Z,3.40
2022-09-16T23:03:23.861Z,2.90
2022-09-16T23:08:27.213Z,2.80
2022-09-16T23:13:31.121Z,3.00
2022-09-16T23:18:36.473Z,3.40
2022-09-16T23:23:41.066Z,3.28
2022-09-16T23:28:43.841Z,3.22
2022-09-16T23:33:48.118Z,3.28
2022-09-16T23:38:51.120Z,2.90
2022-09-16T23:43:54.736Z,2.85
2022-09-16T23:48:59.586Z,3.40
2022-09-16T23:54:02.454Z,3.13
2022-09-16T23:59:05.221Z,3.55
